createdAt,value
2018-09-10T00:01:46.137Z,17.20
2018-09-10T00:06:41.945Z,17.22
2018-09-10T00:11:37.811Z,17.12
2018-09-10T00:16:33.614Z,17.14
2018-09-10T00:21:29.605Z,17.06
2018-09-10T00:26:26.207Z,17.06
2018-09-10T00:31:22.298Z,17.06
2018-09-10T00:36:18.103Z,17.11
2018-09-10T00:41:14.021Z,17.01
2018-09-10T00:46:10.605Z,17.04
2018-09-10T00:51:06.536Z,16.99
2018-09-10T00:56:02.118Z,17.05
2018-09-10T01:00:58.151Z,17.12
2018-09-10T01:05:54.049Z,17.02
2018-09-10T01:10:50.700Z,17.09
2018-09-10T01:15:46.494Z,16.97
2018-09-10T01:20:42.519Z,17.06
2018-09-10T01:25:39.334Z,17.01
2018-09-10T01:30:34.930Z,17.01
2018-09-10T01:35:30.930Z,17.02
2018-09-10T01:40:26.639Z,17.01
2018-09-10T01:45:23.595Z,17.04
2018-09-10T01:50:18.920Z,17.04
2018-09-10T01:55:15.204Z,17.02
2018-09-10T02:00:11.816Z,16.97
2018-09-10T02:05:08.687Z,17.06
2018-09-10T02:10:04.442Z,16.79
2018-09-10T02:15:00.470Z,16.81
2018-09-10T02:19:55.973Z,16.75
2018-09-10T02:24:51.966Z,16.71
2018-09-10T02:29:47.768Z,16.89
2018-09-10T02:34:43.878Z,16.89
2018-09-10T02:39:41.266Z,16.91
2018-09-10T02:44:37.847Z,16.90
2018-09-10T02:49:33.606Z,16.86
2018-09-10T02:54:29.180Z,16.84
2018-09-10T02:59:24.981Z,16.86
2018-09-10T03:04:20.791Z,16.79
2018-09-10T03:09:16.743Z,16.79
2018-09-10T03:14:12.748Z,16.72
2018-09-10T03:19:08.735Z,16.74
2018-09-10T03:24:04.979Z,16.75
2018-09-10T03:29:01.598Z,16.72
2018-09-10T03:33:58.189Z,16.78
2018-09-10T03:38:53.810Z,16.76
2018-09-10T03:43:51.169Z,16.69
2018-09-10T03:48:46.742Z,16.71
2018-09-10T03:53:42.573Z,16.74
2018-09-10T03:58:38.264Z,16.86
2018-09-10T04:03:34.554Z,16.87
2018-09-10T04:08:30.951Z,16.94
2018-09-10T04:13:27.138Z,16.93
2018-09-10T04:18:23.510Z,16.93
2018-09-10T04:23:20.242Z,16.90
2018-09-10T04:28:15.422Z,16.90
2018-09-10T04:33:11.083Z,16.97
2018-09-10T04:38:08.623Z,16.94
2018-09-10T04:43:04.470Z,16.96
2018-09-10T04:48:00.389Z,16.87
2018-09-10T04:52:56.245Z,16.90
2018-09-10T04:57:52.031Z,16.93
2018-09-10T05:02:47.615Z,16.91
2018-09-10T05:07:43.456Z,16.97
2018-09-10T05:12:39.332Z,16.89
2018-09-10T05:17:35.122Z,16.89
2018-09-10T05:22:31.170Z,16.93
2018-09-10T05:27:26.943Z,16.93
2018-09-10T05:32:22.561Z,16.83
2018-09-10T05:37:18.123Z,16.76
2018-09-10T05:42:13.757Z,16.83
2018-09-10T05:47:09.532Z,16.75
2018-09-10T05:52:06.375Z,16.83
2018-09-10T05:57:01.912Z,16.79
2018-09-10T06:01:58.918Z,16.86
2018-09-10T06:06:55.490Z,16.99
2018-09-10T06:11:52.162Z,16.91
2018-09-10T06:16:48.060Z,17.01
2018-09-10T06:21:44.278Z,17.11
2018-09-10T06:26:40.041Z,17.30
2018-09-10T06:31:36.427Z,17.42
2018-09-10T06:36:32.889Z,17.56
2018-09-10T06:41:28.764Z,17.65
2018-09-10T06:46:25.105Z,17.68
2018-09-10T06:51:20.994Z,17.83
2018-09-10T06:56:16.782Z,17.89
2018-09-10T07:01:13.357Z,17.92
2018-09-10T07:06:09.294Z,17.97
2018-09-10T07:11:06.096Z,18.00
2018-09-10T07:16:01.655Z,18.05
2018-09-10T07:20:57.421Z,18.15
2018-09-10T07:25:53.367Z,18.11
2018-09-10T07:30:49.669Z,18.43
2018-09-10T07:35:46.162Z,18.77
2018-09-10T07:40:42.320Z,18.92
2018-09-10T07:45:38.597Z,19.04
2018-09-10T07:50:34.388Z,19.07
2018-09-10T07:55:31.215Z,19.07
2018-09-10T08:00:26.725Z,19.11
2018-09-10T08:05:22.272Z,19.07
2018-09-10T08:10:17.779Z,19.04
2018-09-10T08:15:14.138Z,18.95
2018-09-10T08:20:11.349Z,19.00
2018-09-10T08:25:07.002Z,19.07
2018-09-10T08:30:04.408Z,19.04
2018-09-10T08:35:00.270Z,19.12
2018-09-10T08:39:56.245Z,19.04
2018-09-10T08:44:52.762Z,19.04
2018-09-10T08:49:48.920Z,19.09
2018-09-10T08:54:45.851Z,19.07
2018-09-10T08:59:41.981Z,19.16
2018-09-10T09:04:39.013Z,19.15
2018-09-10T09:09:34.945Z,19.36
2018-09-10T09:14:32.017Z,19.52
2018-09-10T09:19:28.256Z,19.66
2018-09-10T09:24:25.344Z,19.84
2018-09-10T09:29:21.281Z,20.03
2018-09-10T09:34:17.627Z,20.25
2018-09-10T09:39:13.696Z,20.31
2018-09-10T09:44:10.220Z,20.52
2018-09-10T09:49:07.175Z,20.52
2018-09-10T09:54:04.236Z,20.36
2018-09-10T09:58:59.474Z,20.32
2018-09-10T10:03:55.343Z,20.31
2018-09-10T10:08:52.639Z,20.28
2018-09-10T10:13:48.503Z,20.39
2018-09-10T10:18:44.547Z,20.47
2018-09-10T10:23:40.228Z,20.37
2018-09-10T10:28:36.385Z,20.44
2018-09-10T10:33:33.350Z,20.37
2018-09-10T10:38:28.761Z,20.41
2018-09-10T10:43:24.640Z,20.31
2018-09-10T10:48:20.599Z,20.31
2018-09-10T10:53:17.632Z,20.29
2018-09-10T10:58:13.253Z,20.32
2018-09-10T11:03:09.141Z,20.36
2018-09-10T11:08:04.972Z,20.44
2018-09-10T11:13:00.944Z,20.52
2018-09-10T11:17:57.105Z,20.62
2018-09-10T11:22:53.458Z,20.85
2018-09-10T11:27:49.872Z,20.93
2018-09-10T11:32:45.868Z,21.05
2018-09-10T11:37:41.846Z,20.96
2018-09-10T11:42:37.888Z,20.92
2018-09-10T11:47:34.668Z,20.82
2018-09-10T11:52:30.496Z,20.99
2018-09-10T11:57:26.393Z,21.03
2018-09-10T12:02:23.174Z,21.00
2018-09-10T12:07:19.090Z,21.06
2018-09-10T12:12:15.173Z,21.07
2018-09-10T12:17:10.830Z,20.97
2018-09-10T12:22:06.583Z,20.92
2018-09-10T12:27:02.404Z,21.02
2018-09-10T12:31:58.335Z,21.07
2018-09-10T12:36:54.278Z,21.11
2018-09-10T12:41:51.991Z,21.20
2018-09-10T12:46:47.894Z,21.30
2018-09-10T12:51:43.816Z,21.36
2018-09-10T12:56:40.122Z,21.66
2018-09-10T13:01:36.215Z,21.77
2018-09-10T13:06:33.031Z,21.66
2018-09-10T13:11:28.997Z,21.70
2018-09-10T13:16:24.792Z,21.64
2018-09-10T13:21:22.132Z,21.73
2018-09-10T13:26:18.444Z,21.89
2018-09-10T13:31:14.729Z,22.00
2018-09-10T13:36:11.615Z,21.91
2018-09-10T13:41:07.407Z,21.85
2018-09-10T13:46:03.512Z,21.93
2018-09-10T13:50:59.092Z,21.69
2018-09-10T13:55:55.414Z,21.77
2018-09-10T14:00:52.445Z,21.73
2018-09-10T14:05:49.234Z,21.76
2018-09-10T14:10:44.794Z,21.76
2018-09-10T14:15:41.705Z,21.66
2018-09-10T14:20:38.610Z,21.66
2018-09-10T14:25:35.315Z,21.67
2018-09-10T14:30:31.917Z,21.66
2018-09-10T14:35:28.393Z,21.61
2018-09-10T14:40:23.957Z,21.48
2018-09-10T14:45:19.685Z,21.43
2018-09-10T14:50:16.510Z,21.43
2018-09-10T14:55:13.101Z,21.36
2018-09-10T15:00:09.218Z,21.40
2018-09-10T15:05:05.442Z,21.35
2018-09-10T15:10:01.413Z,21.36
2018-09-10T15:14:57.472Z,21.42
2018-09-10T15:19:53.380Z,21.30
2018-09-10T15:24:49.565Z,21.25
2018-09-10T15:29:45.338Z,21.18
2018-09-10T15:34:41.459Z,21.17
2018-09-10T15:39:37.833Z,21.17
2018-09-10T15:44:33.753Z,21.03
2018-09-10T15:49:30.030Z,21.00
2018-09-10T15:54:25.879Z,21.00
2018-09-10T15:59:22.894Z,21.14
2018-09-10T16:04:19.459Z,20.99
2018-09-10T16:09:14.953Z,21.00
2018-09-10T16:14:10.836Z,20.96
2018-09-10T16:19:07.652Z,20.93
2018-09-10T16:24:04.566Z,20.92
2018-09-10T16:29:00.482Z,20.84
2018-09-10T16:33:56.545Z,20.85
2018-09-10T16:38:52.879Z,20.78
2018-09-10T16:43:48.642Z,20.72
2018-09-10T16:48:44.344Z,20.72
2018-09-10T16:53:40.121Z,20.70
2018-09-10T16:58:36.429Z,20.60
2018-09-10T17:03:33.442Z,20.50
2018-09-10T17:08:28.698Z,20.40
2018-09-10T17:13:24.929Z,20.34
2018-09-10T17:18:21.283Z,20.41
2018-09-10T17:23:18.068Z,20.40
2018-09-10T17:28:13.400Z,20.37
2018-09-10T17:33:09.215Z,20.28
2018-09-10T17:38:04.905Z,20.13
2018-09-10T17:43:00.983Z,20.19
2018-09-10T17:47:58.173Z,20.14
2018-09-10T17:52:54.238Z,19.95
2018-09-10T17:57:50.336Z,20.02
2018-09-10T18:02:46.942Z,19.96
2018-09-10T18:07:42.591Z,19.82
2018-09-10T18:12:39.358Z,19.85
2018-09-10T18:17:36.405Z,19.88
2018-09-10T18:22:31.988Z,19.67
2018-09-10T18:27:27.929Z,19.70
2018-09-10T18:32:23.410Z,19.63
2018-09-10T18:37:19.729Z,19.62
2018-09-10T18:42:15.408Z,19.55
2018-09-10T18:47:11.109Z,19.47
2018-09-10T18:52:06.850Z,19.36
2018-09-10T18:57:02.699Z,19.16
2018-09-10T19:01:59.589Z,19.12
2018-09-10T19:06:55.608Z,19.07
2018-09-10T19:11:50.925Z,19.07
2018-09-10T19:16:46.781Z,18.95
2018-09-10T19:21:43.796Z,18.89
2018-09-10T19:26:40.123Z,18.78
2018-09-10T19:31:36.500Z,18.92
2018-09-10T19:36:32.686Z,18.89
2018-09-10T19:41:28.150Z,18.86
2018-09-10T19:46:25.363Z,18.81
2018-09-10T19:51:21.530Z,18.74
2018-09-10T19:56:17.484Z,18.70
2018-09-10T20:01:13.110Z,18.75
2018-09-10T20:06:08.726Z,18.66
2018-09-10T20:11:06.098Z,18.74
2018-09-10T20:16:02.557Z,18.66
2018-09-10T20:20:58.462Z,18.56
2018-09-10T20:25:54.135Z,18.59
2018-09-10T20:30:50.390Z,18.47
2018-09-10T20:35:47.396Z,18.45
2018-09-10T20:40:43.647Z,18.44
2018-09-10T20:45:39.495Z,18.49
2018-09-10T20:50:35.153Z,18.33
2018-09-10T20:55:30.572Z,18.33
2018-09-10T21:00:26.735Z,18.37
2018-09-10T21:10:23.534Z,18.34
2018-09-10T21:15:19.435Z,18.35
2018-09-10T21:20:15.336Z,18.35
2018-09-10T21:25:11.174Z,18.18
2018-09-10T21:30:06.796Z,18.25
2018-09-10T21:35:02.726Z,18.08
2018-09-10T21:39:59.963Z,18.13
2018-09-10T21:44:55.252Z,18.03
2018-09-10T21:49:51.505Z,18.05
2018-09-10T21:54:47.326Z,18.03
2018-09-10T21:59:43.775Z,17.94
2018-09-10T22:04:39.559Z,17.78
2018-09-10T22:09:36.259Z,17.67
2018-09-10T22:14:32.550Z,17.67
2018-09-10T22:19:28.283Z,17.67
2018-09-10T22:24:25.154Z,17.57
2018-09-10T22:29:20.711Z,17.60
2018-09-10T22:34:16.392Z,17.46
2018-09-10T22:39:12.183Z,17.63
2018-09-10T22:44:07.686Z,17.48
2018-09-10T22:49:03.239Z,17.51
2018-09-10T22:53:59.212Z,17.51
2018-09-10T22:58:55.246Z,17.49
2018-09-10T23:03:51.250Z,17.46
2018-09-10T23:08:47.130Z,17.45
2018-09-10T23:13:44.031Z,17.41
2018-09-10T23:18:40.108Z,17.33
2018-09-10T23:23:37.308Z,17.34
2018-09-10T23:28:33.665Z,17.27
2018-09-10T23:33:30.098Z,17.16
2018-09-10T23:38:25.833Z,17.23
2018-09-10T23:43:21.819Z,17.20
2018-09-10T23:48:17.682Z,17.23
2018-09-10T23:53:13.715Z,17.19
2018-09-10T23:58:09.411Z,17.14
